sensor_id;sensor_type;location;lat;lon;timestamp;temperature;humidity
17879;DHT22;9065;51.050;13.758;2023-02-21T00:02:25;11.70;99.90
17879;DHT22;9065;51.050;13.758;2023-02-21T00:05:10;11.70;99.90
17879;DHT22;9065;51.050;13.758;2023-02-21T00:07:54;11.70;99.90
17879;DHT22;9065;51.050;13.758;2023-02-21T00:10:38;11.70;99.90
17879;DHT22;9065;51.050;13.758;2023-02-21T00:13:23;11.70;99.90
17879;DHT22;9065;51.050;13.758;2023-02-21T00:16:08;11.70;99.90
17879;DHT22;9065;51.050;13.758;2023-02-21T00:18:53;11.70;99.90
17879;DHT22;9065;51.050;13.758;2023-02-21T00:21:39;11.70;99.90
17879;DHT22;9065;51.050;13.758;2023-02-21T00:24:23;11.70;99.90
17879;DHT22;9065;51.050;13.758;2023-02-21T00:27:07;11.70;99.90
17879;DHT22;9065;51.050;13.758;2023-02-21T00:29:52;11.70;99.90
17879;DHT22;9065;51.050;13.758;2023-02-21T00:32:37;11.60;99.90
17879;DHT22;9065;51.050;13.758;2023-02-21T00:35:21;11.60;99.90
17879;DHT22;9065;51.050;13.758;2023-02-21T00:38:05;11.50;99.90
17879;DHT22;9065;51.050;13.758;2023-02-21T00:40:55;11.50;99.90
17879;DHT22;9065;51.050;13.758;2023-02-21T00:43:39;11.50;99.90
17879;DHT22;9065;51.050;13.758;2023-02-21T00:46:27;11.50;99.90
17879;DHT22;9065;51.050;13.758;2023-02-21T00:49:11;11.50;99.90
17879;DHT22;9065;51.050;13.758;2023-02-21T00:51:56;11.50;99.90
17879;DHT22;9065;51.050;13.758;2023-02-21T00:54:40;11.50;99.90
17879;DHT22;9065;51.050;13.758;2023-02-21T00:57:24;11.50;99.90
17879;DHT22;9065;51.050;13.758;2023-02-21T01:00:14;11.50;99.90
17879;DHT22;9065;51.050;13.758;2023-02-21T01:03:00;11.60;99.90
17879;DHT22;9065;51.050;13.758;2023-02-21T01:05:45;11.50;99.90
17879;DHT22;9065;51.050;13.758;2023-02-21T01:08:30;11.60;99.90
17879;DHT22;9065;51.050;13.758;2023-02-21T01:11:18;11.60;99.90
17879;DHT22;9065;51.050;13.758;2023-02-21T01:14:03;11.60;99.90
17879;DHT22;9065;51.050;13.758;2023-02-21T01:16:47;11.50;99.90
17879;DHT22;9065;51.050;13.758;2023-02-21T01:19:34;11.60;99.90
17879;DHT22;9065;51.050;13.758;2023-02-21T01:22:18;11.50;99.90
17879;DHT22;9065;51.050;13.758;2023-02-21T01:25:03;11.60;99.90
17879;DHT22;9065;51.050;13.758;2023-02-21T01:27:48;11.60;99.90
17879;DHT22;9065;51.050;13.758;2023-02-21T01:30:33;11.60;99.90
17879;DHT22;9065;51.050;13.758;2023-02-21T01:33:17;11.60;99.90
17879;DHT22;9065;51.050;13.758;2023-02-21T01:36:05;11.60;99.90
17879;DHT22;9065;51.050;13.758;2023-02-21T01:38:50;11.60;99.90
17879;DHT22;9065;51.050;13.758;2023-02-21T01:41:33;11.60;99.90
17879;DHT22;9065;51.050;13.758;2023-02-21T01:44:31;11.60;99.90
17879;DHT22;9065;51.050;13.758;2023-02-21T01:47:17;11.70;99.90
17879;DHT22;9065;51.050;13.758;2023-02-21T01:50:04;11.70;99.90
17879;DHT22;9065;51.050;13.758;2023-02-21T01:52:52;11.70;99.90
17879;DHT22;9065;51.050;13.758;2023-02-21T01:55:38;11.70;99.90
17879;DHT22;9065;51.050;13.758;2023-02-21T01:58:28;11.70;99.90
17879;DHT22;9065;51.050;13.758;2023-02-21T02:01:22;11.70;99.90
17879;DHT22;9065;51.050;13.758;2023-02-21T02:04:08;11.70;99.90
17879;DHT22;9065;51.050;13.758;2023-02-21T02:06:52;11.70;99.90
17879;DHT22;9065;51.050;13.758;2023-02-21T02:09:38;11.80;99.90
17879;DHT22;9065;51.050;13.758;2023-02-21T02:12:48;11.80;99.90
17879;DHT22;9065;51.050;13.758;2023-02-21T02:15:29;11.80;99.90
17879;DHT22;9065;51.050;13.758;2023-02-21T02:18:24;11.70;99.90
17879;DHT22;9065;51.050;13.758;2023-02-21T02:21:18;11.60;99.90
17879;DHT22;9065;51.050;13.758;2023-02-21T02:24:22;11.60;99.90
17879;DHT22;9065;51.050;13.758;2023-02-21T02:27:19;11.70;99.90
17879;DHT22;9065;51.050;13.758;2023-02-21T02:35:52;11.70;99.90
17879;DHT22;9065;51.050;13.758;2023-02-21T02:38:26;11.70;99.90
17879;DHT22;9065;51.050;13.758;2023-02-21T02:40:58;11.70;99.90
17879;DHT22;9065;51.050;13.758;2023-02-21T02:43:29;11.80;99.90
17879;DHT22;9065;51.050;13.758;2023-02-21T02:45:59;11.80;99.90
17879;DHT22;9065;51.050;13.758;2023-02-21T02:48:32;11.90;99.90
17879;DHT22;9065;51.050;13.758;2023-02-21T02:51:04;11.80;99.90
17879;DHT22;9065;51.050;13.758;2023-02-21T02:53:32;11.80;99.90
17879;DHT22;9065;51.050;13.758;2023-02-21T02:56:02;11.80;99.90
17879;DHT22;9065;51.050;13.758;2023-02-21T02:58:30;11.80;99.90
17879;DHT22;9065;51.050;13.758;2023-02-21T03:01:08;11.90;99.90
17879;DHT22;9065;51.050;13.758;2023-02-21T03:03:46;11.90;99.90
17879;DHT22;9065;51.050;13.758;2023-02-21T03:06:35;11.90;99.90
17879;DHT22;9065;51.050;13.758;2023-02-21T03:09:10;11.80;99.90
17879;DHT22;9065;51.050;13.758;2023-02-21T03:11:46;11.90;99.90
17879;DHT22;9065;51.050;13.758;2023-02-21T03:14:15;11.80;99.90
17879;DHT22;9065;51.050;13.758;2023-02-21T03:16:46;11.80;99.90
17879;DHT22;9065;51.050;13.758;2023-02-21T03:19:17;11.80;99.90
17879;DHT22;9065;51.050;13.758;2023-02-21T03:21:47;11.80;99.90
17879;DHT22;9065;51.050;13.758;2023-02-21T03:24:16;11.80;99.90
17879;DHT22;9065;51.050;13.758;2023-02-21T03:26:47;11.80;99.90
17879;DHT22;9065;51.050;13.758;2023-02-21T03:29:15;11.90;99.90
17879;DHT22;9065;51.050;13.758;2023-02-21T03:31:46;11.90;99.90
17879;DHT22;9065;51.050;13.758;2023-02-21T03:34:14;11.90;99.90
17879;DHT22;9065;51.050;13.758;2023-02-21T03:36:41;11.90;99.90
17879;DHT22;9065;51.050;13.758;2023-02-21T03:39:10;11.90;99.90
17879;DHT22;9065;51.050;13.758;2023-02-21T03:41:37;11.80;99.90
17879;DHT22;9065;51.050;13.758;2023-02-21T03:44:04;11.90;99.90
17879;DHT22;9065;51.050;13.758;2023-02-21T03:46:31;11.90;99.90
17879;DHT22;9065;51.050;13.758;2023-02-21T03:49:06;11.90;99.90
17879;DHT22;9065;51.050;13.758;2023-02-21T03:51:32;11.90;99.90
17879;DHT22;9065;51.050;13.758;2023-02-21T03:53:59;11.90;99.90
17879;DHT22;9065;51.050;13.758;2023-02-21T03:56:27;11.90;99.90
17879;DHT22;9065;51.050;13.758;2023-02-21T03:58:55;11.90;99.90
17879;DHT22;9065;51.050;13.758;2023-02-21T04:01:22;11.90;99.90
17879;DHT22;9065;51.050;13.758;2023-02-21T04:03:49;11.90;99.90
17879;DHT22;9065;51.050;13.758;2023-02-21T04:06:17;12.00;99.90
17879;DHT22;9065;51.050;13.758;2023-02-21T04:08:45;12.00;99.90
17879;DHT22;9065;51.050;13.758;2023-02-21T04:11:11;12.10;99.90
17879;DHT22;9065;51.050;13.758;2023-02-21T04:13:39;12.10;99.90
17879;DHT22;9065;51.050;13.758;2023-02-21T04:16:07;12.10;99.90
17879;DHT22;9065;51.050;13.758;2023-02-21T04:18:36;12.10;99.90
17879;DHT22;9065;51.050;13.758;2023-02-21T04:21:03;12.00;99.90
17879;DHT22;9065;51.050;13.758;2023-02-21T04:23:32;12.00;99.90
17879;DHT22;9065;51.050;13.758;2023-02-21T04:25:59;12.00;99.90
17879;DHT22;9065;51.050;13.758;2023-02-21T04:28:27;11.90;99.90
17879;DHT22;9065;51.050;13.758;2023-02-21T04:30:57;12.00;99.90
17879;DHT22;9065;51.050;13.758;2023-02-21T04:33:25;12.00;99.90
17879;DHT22;9065;51.050;13.758;2023-02-21T04:35:53;12.00;99.90
17879;DHT22;9065;51.050;13.758;2023-02-21T04:38:21;12.00;99.90
17879;DHT22;9065;51.050;13.758;2023-02-21T04:40:47;11.90;99.90
17879;DHT22;9065;51.050;13.758;2023-02-21T04:43:14;12.00;99.90
17879;DHT22;9065;51.050;13.758;2023-02-21T04:45:43;12.00;99.90
17879;DHT22;9065;51.050;13.758;2023-02-21T04:48:11;11.90;99.90
17879;DHT22;9065;51.050;13.758;2023-02-21T04:50:37;12.00;99.90
17879;DHT22;9065;51.050;13.758;2023-02-21T04:53:04;12.00;99.90
17879;DHT22;9065;51.050;13.758;2023-02-21T04:55:31;12.00;99.90
17879;DHT22;9065;51.050;13.758;2023-02-21T04:57:58;12.00;99.90
17879;DHT22;9065;51.050;13.758;2023-02-21T05:00:28;12.00;99.90
17879;DHT22;9065;51.050;13.758;2023-02-21T05:03:00;12.00;99.90
17879;DHT22;9065;51.050;13.758;2023-02-21T05:05:28;12.00;99.90
17879;DHT22;9065;51.050;13.758;2023-02-21T05:07:55;12.10;99.90
17879;DHT22;9065;51.050;13.758;2023-02-21T05:10:21;12.00;99.90
17879;DHT22;9065;51.050;13.758;2023-02-21T05:12:48;12.00;99.90
17879;DHT22;9065;51.050;13.758;2023-02-21T05:15:15;12.00;99.90
17879;DHT22;9065;51.050;13.758;2023-02-21T05:17:42;12.00;99.90
17879;DHT22;9065;51.050;13.758;2023-02-21T05:20:10;12.10;99.90
17879;DHT22;9065;51.050;13.758;2023-02-21T05:22:39;12.00;99.90
17879;DHT22;9065;51.050;13.758;2023-02-21T05:25:08;12.00;99.90
17879;DHT22;9065;51.050;13.758;2023-02-21T05:27:39;12.00;99.90
17879;DHT22;9065;51.050;13.758;2023-02-21T05:30:08;12.00;99.90
17879;DHT22;9065;51.050;13.758;2023-02-21T05:32:37;12.10;99.90
17879;DHT22;9065;51.050;13.758;2023-02-21T05:35:05;12.10;99.90
17879;DHT22;9065;51.050;13.758;2023-02-21T05:37:34;12.10;99.90
17879;DHT22;9065;51.050;13.758;2023-02-21T05:40:10;12.10;99.90
17879;DHT22;9065;51.050;13.758;2023-02-21T05:42:37;12.10;99.90
17879;DHT22;9065;51.050;13.758;2023-02-21T05:45:04;12.10;99.90
17879;DHT22;9065;51.050;13.758;2023-02-21T05:47:32;12.10;99.90
17879;DHT22;9065;51.050;13.758;2023-02-21T05:49:59;12.10;99.90
17879;DHT22;9065;51.050;13.758;2023-02-21T05:52:26;12.10;99.90
17879;DHT22;9065;51.050;13.758;2023-02-21T05:54:53;12.10;99.90
17879;DHT22;9065;51.050;13.758;2023-02-21T05:57:21;12.10;99.90
17879;DHT22;9065;51.050;13.758;2023-02-21T05:59:50;12.10;99.90
17879;DHT22;9065;51.050;13.758;2023-02-21T06:02:17;12.10;99.90
17879;DHT22;9065;51.050;13.758;2023-02-21T06:04:43;12.10;99.90
17879;DHT22;9065;51.050;13.758;2023-02-21T06:07:10;12.10;99.90
17879;DHT22;9065;51.050;13.758;2023-02-21T06:09:37;12.10;99.90
17879;DHT22;9065;51.050;13.758;2023-02-21T06:12:05;12.00;99.90
17879;DHT22;9065;51.050;13.758;2023-02-21T06:14:33;12.10;99.90
17879;DHT22;9065;51.050;13.758;2023-02-21T06:17:00;12.10;99.90
17879;DHT22;9065;51.050;13.758;2023-02-21T06:19:27;12.10;99.90
17879;DHT22;9065;51.050;13.758;2023-02-21T06:21:54;12.10;99.90
17879;DHT22;9065;51.050;13.758;2023-02-21T06:24:22;12.10;99.90
17879;DHT22;9065;51.050;13.758;2023-02-21T06:26:49;12.10;99.90
17879;DHT22;9065;51.050;13.758;2023-02-21T06:29:16;12.10;99.90
17879;DHT22;9065;51.050;13.758;2023-02-21T06:31:44;12.00;99.90
17879;DHT22;9065;51.050;13.758;2023-02-21T06:34:12;12.00;99.90
17879;DHT22;9065;51.050;13.758;2023-02-21T06:36:39;12.00;99.90
17879;DHT22;9065;51.050;13.758;2023-02-21T06:39:08;12.00;99.90
17879;DHT22;9065;51.050;13.758;2023-02-21T06:41:35;12.00;99.90
17879;DHT22;9065;51.050;13.758;2023-02-21T06:44:04;12.00;99.90
17879;DHT22;9065;51.050;13.758;2023-02-21T06:46:30;12.10;99.90
17879;DHT22;9065;51.050;13.758;2023-02-21T06:49:01;12.10;99.90
17879;DHT22;9065;51.050;13.758;2023-02-21T06:51:27;12.10;99.90
17879;DHT22;9065;51.050;13.758;2023-02-21T06:53:55;12.10;99.90
17879;DHT22;9065;51.050;13.758;2023-02-21T06:56:23;12.10;99.90
17879;DHT22;9065;51.050;13.758;2023-02-21T06:58:51;12.10;99.90
17879;DHT22;9065;51.050;13.758;2023-02-21T07:01:18;12.20;99.90
17879;DHT22;9065;51.050;13.758;2023-02-21T07:03:45;12.20;99.90
17879;DHT22;9065;51.050;13.758;2023-02-21T07:06:15;12.20;99.90
17879;DHT22;9065;51.050;13.758;2023-02-21T07:08:43;12.20;99.90
17879;DHT22;9065;51.050;13.758;2023-02-21T07:11:10;12.20;99.90
17879;DHT22;9065;51.050;13.758;2023-02-21T07:13:37;12.20;99.90
17879;DHT22;9065;51.050;13.758;2023-02-21T07:16:05;12.20;99.90
17879;DHT22;9065;51.050;13.758;2023-02-21T07:18:33;12.30;99.90
17879;DHT22;9065;51.050;13.758;2023-02-21T07:21:02;12.20;99.90
17879;DHT22;9065;51.050;13.758;2023-02-21T07:23:30;12.20;99.90
17879;DHT22;9065;51.050;13.758;2023-02-21T07:25:57;12.30;99.90
17879;DHT22;9065;51.050;13.758;2023-02-21T07:28:24;12.30;99.90
17879;DHT22;9065;51.050;13.758;2023-02-21T07:30:51;12.40;99.90
17879;DHT22;9065;51.050;13.758;2023-02-21T07:33:18;12.40;99.90
17879;DHT22;9065;51.050;13.758;2023-02-21T07:35:45;12.40;99.90
17879;DHT22;9065;51.050;13.758;2023-02-21T07:38:18;12.40;99.90
17879;DHT22;9065;51.050;13.758;2023-02-21T07:40:48;12.40;99.90
17879;DHT22;9065;51.050;13.758;2023-02-21T07:43:16;12.50;99.90
17879;DHT22;9065;51.050;13.758;2023-02-21T07:45:43;12.60;99.90
17879;DHT22;9065;51.050;13.758;2023-02-21T07:48:10;12.50;99.90
17879;DHT22;9065;51.050;13.758;2023-02-21T07:50:39;12.60;99.90
17879;DHT22;9065;51.050;13.758;2023-02-21T07:53:16;12.60;99.90
17879;DHT22;9065;51.050;13.758;2023-02-21T07:55:45;12.50;99.90
17879;DHT22;9065;51.050;13.758;2023-02-21T07:58:14;12.50;99.90
17879;DHT22;9065;51.050;13.758;2023-02-21T08:00:41;12.50;99.90
17879;DHT22;9065;51.050;13.758;2023-02-21T08:03:11;12.60;99.90
17879;DHT22;9065;51.050;13.758;2023-02-21T08:05:40;12.60;99.90
17879;DHT22;9065;51.050;13.758;2023-02-21T08:08:08;12.50;99.90
17879;DHT22;9065;51.050;13.758;2023-02-21T08:10:36;12.50;99.90
17879;DHT22;9065;51.050;13.758;2023-02-21T08:13:03;12.50;99.90
17879;DHT22;9065;51.050;13.758;2023-02-21T08:15:34;12.60;99.90
17879;DHT22;9065;51.050;13.758;2023-02-21T08:18:01;12.60;99.90
17879;DHT22;9065;51.050;13.758;2023-02-21T08:20:28;12.50;99.90
17879;DHT22;9065;51.050;13.758;2023-02-21T08:22:56;12.50;99.90
17879;DHT22;9065;51.050;13.758;2023-02-21T08:25:24;12.50;99.90
17879;DHT22;9065;51.050;13.758;2023-02-21T08:27:50;12.50;99.90
17879;DHT22;9065;51.050;13.758;2023-02-21T08:30:20;12.50;99.90
17879;DHT22;9065;51.050;13.758;2023-02-21T08:32:48;12.50;99.90
17879;DHT22;9065;51.050;13.758;2023-02-21T08:35:16;12.50;99.90
17879;DHT22;9065;51.050;13.758;2023-02-21T08:37:47;12.50;99.90
17879;DHT22;9065;51.050;13.758;2023-02-21T08:40:21;12.50;99.90
17879;DHT22;9065;51.050;13.758;2023-02-21T08:42:49;12.50;99.90
17879;DHT22;9065;51.050;13.758;2023-02-21T08:45:18;12.50;99.90
17879;DHT22;9065;51.050;13.758;2023-02-21T08:47:45;12.40;99.90
17879;DHT22;9065;51.050;13.758;2023-02-21T08:50:16;12.40;99.90
17879;DHT22;9065;51.050;13.758;2023-02-21T08:52:49;12.50;99.90
17879;DHT22;9065;51.050;13.758;2023-02-21T08:55:16;12.60;99.90
17879;DHT22;9065;51.050;13.758;2023-02-21T08:57:44;12.50;99.90
17879;DHT22;9065;51.050;13.758;2023-02-21T09:00:13;12.60;99.90
17879;DHT22;9065;51.050;13.758;2023-02-21T09:02:40;12.60;99.90
17879;DHT22;9065;51.050;13.758;2023-02-21T09:05:08;12.70;99.90
17879;DHT22;9065;51.050;13.758;2023-02-21T09:07:36;12.70;99.90
17879;DHT22;9065;51.050;13.758;2023-02-21T09:10:04;12.80;99.90
17879;DHT22;9065;51.050;13.758;2023-02-21T09:12:31;12.90;99.90
17879;DHT22;9065;51.050;13.758;2023-02-21T09:14:58;13.00;99.90
17879;DHT22;9065;51.050;13.758;2023-02-21T09:17:27;13.00;99.90
17879;DHT22;9065;51.050;13.758;2023-02-21T09:19:58;13.00;99.90
17879;DHT22;9065;51.050;13.758;2023-02-21T09:22:25;13.10;99.90
17879;DHT22;9065;51.050;13.758;2023-02-21T09:24:53;13.10;99.90
17879;DHT22;9065;51.050;13.758;2023-02-21T09:27:21;13.00;99.90
17879;DHT22;9065;51.050;13.758;2023-02-21T09:30:02;13.00;99.90
17879;DHT22;9065;51.050;13.758;2023-02-21T09:32:29;13.10;99.90
17879;DHT22;9065;51.050;13.758;2023-02-21T09:34:56;13.20;99.90
17879;DHT22;9065;51.050;13.758;2023-02-21T09:37:23;13.30;99.90
17879;DHT22;9065;51.050;13.758;2023-02-21T09:39:53;13.30;99.90
17879;DHT22;9065;51.050;13.758;2023-02-21T09:42:27;13.30;99.90
17879;DHT22;9065;51.050;13.758;2023-02-21T09:44:55;13.50;99.90
17879;DHT22;9065;51.050;13.758;2023-02-21T09:47:26;13.60;99.90
17879;DHT22;9065;51.050;13.758;2023-02-21T09:49:59;13.50;99.90
17879;DHT22;9065;51.050;13.758;2023-02-21T09:52:32;13.60;99.90
17879;DHT22;9065;51.050;13.758;2023-02-21T09:55:04;13.60;99.90
17879;DHT22;9065;51.050;13.758;2023-02-21T09:57:35;13.70;99.90
17879;DHT22;9065;51.050;13.758;2023-02-21T10:00:10;13.60;99.90
17879;DHT22;9065;51.050;13.758;2023-02-21T10:02:48;13.60;99.90
17879;DHT22;9065;51.050;13.758;2023-02-21T10:05:23;13.60;99.90
17879;DHT22;9065;51.050;13.758;2023-02-21T10:07:59;13.80;99.90
17879;DHT22;9065;51.050;13.758;2023-02-21T10:10:30;13.80;99.90
17879;DHT22;9065;51.050;13.758;2023-02-21T10:13:09;13.80;99.90
17879;DHT22;9065;51.050;13.758;2023-02-21T10:15:45;13.90;99.90
17879;DHT22;9065;51.050;13.758;2023-02-21T10:18:25;13.80;99.90
17879;DHT22;9065;51.050;13.758;2023-02-21T10:20:55;13.90;99.90
17879;DHT22;9065;51.050;13.758;2023-02-21T10:23:29;13.80;99.90
17879;DHT22;9065;51.050;13.758;2023-02-21T10:26:02;13.70;99.90
17879;DHT22;9065;51.050;13.758;2023-02-21T10:28:33;13.70;99.90
17879;DHT22;9065;51.050;13.758;2023-02-21T10:31:03;13.70;99.90
17879;DHT22;9065;51.050;13.758;2023-02-21T10:33:36;13.60;99.90
17879;DHT22;9065;51.050;13.758;2023-02-21T10:36:12;13.60;99.90
17879;DHT22;9065;51.050;13.758;2023-02-21T10:38:40;13.60;99.90
17879;DHT22;9065;51.050;13.758;2023-02-21T10:41:10;13.70;99.90
17879;DHT22;9065;51.050;13.758;2023-02-21T10:43:43;13.80;99.90
17879;DHT22;9065;51.050;13.758;2023-02-21T10:46:17;13.70;99.90
17879;DHT22;9065;51.050;13.758;2023-02-21T10:48:50;13.70;99.90
17879;DHT22;9065;51.050;13.758;2023-02-21T10:51:28;13.80;99.90
17879;DHT22;9065;51.050;13.758;2023-02-21T10:54:17;13.80;99.90
17879;DHT22;9065;51.050;13.758;2023-02-21T10:56:46;13.70;99.90
17879;DHT22;9065;51.050;13.758;2023-02-21T10:59:21;13.80;99.90
17879;DHT22;9065;51.050;13.758;2023-02-21T11:01:49;13.70;99.90
17879;DHT22;9065;51.050;13.758;2023-02-21T11:04:25;13.70;99.90
17879;DHT22;9065;51.050;13.758;2023-02-21T11:07:02;13.70;99.90
17879;DHT22;9065;51.050;13.758;2023-02-21T11:09:37;13.70;99.90
17879;DHT22;9065;51.050;13.758;2023-02-21T11:12:17;13.80;99.90
17879;DHT22;9065;51.050;13.758;2023-02-21T11:15:03;13.80;99.90
17879;DHT22;9065;51.050;13.758;2023-02-21T11:17:31;13.80;99.90
17879;DHT22;9065;51.050;13.758;2023-02-21T11:20:04;13.70;99.90
17879;DHT22;9065;51.050;13.758;2023-02-21T11:22:45;13.70;99.90
17879;DHT22;9065;51.050;13.758;2023-02-21T11:25:21;13.60;99.90
17879;DHT22;9065;51.050;13.758;2023-02-21T11:28:16;13.50;99.90
17879;DHT22;9065;51.050;13.758;2023-02-21T11:30:48;13.60;99.90
17879;DHT22;9065;51.050;13.758;2023-02-21T11:33:19;13.60;99.90
17879;DHT22;9065;51.050;13.758;2023-02-21T11:35:49;13.50;99.90
17879;DHT22;9065;51.050;13.758;2023-02-21T11:38:33;13.50;99.90
17879;DHT22;9065;51.050;13.758;2023-02-21T11:41:01;13.50;99.90
17879;DHT22;9065;51.050;13.758;2023-02-21T11:43:30;13.60;99.90
17879;DHT22;9065;51.050;13.758;2023-02-21T11:46:04;13.60;99.90
17879;DHT22;9065;51.050;13.758;2023-02-21T11:48:36;13.70;99.90
17879;DHT22;9065;51.050;13.758;2023-02-21T11:51:07;13.70;99.90
17879;DHT22;9065;51.050;13.758;2023-02-21T11:53:42;13.70;99.90
17879;DHT22;9065;51.050;13.758;2023-02-21T11:56:19;13.60;99.90
17879;DHT22;9065;51.050;13.758;2023-02-21T11:58:57;13.60;99.90
17879;DHT22;9065;51.050;13.758;2023-02-21T12:01:44;13.60;99.90
17879;DHT22;9065;51.050;13.758;2023-02-21T12:04:20;13.50;99.90
17879;DHT22;9065;51.050;13.758;2023-02-21T12:06:58;13.40;99.90
17879;DHT22;9065;51.050;13.758;2023-02-21T12:09:35;13.40;99.90
17879;DHT22;9065;51.050;13.758;2023-02-21T12:12:14;13.40;99.90
17879;DHT22;9065;51.050;13.758;2023-02-21T12:14:54;13.40;99.90
17879;DHT22;9065;51.050;13.758;2023-02-21T12:17:48;13.40;99.90
17879;DHT22;9065;51.050;13.758;2023-02-21T12:21:01;13.50;99.90
17879;DHT22;9065;51.050;13.758;2023-02-21T12:23:39;13.40;99.90
17879;DHT22;9065;51.050;13.758;2023-02-21T12:26:20;13.40;99.90
17879;DHT22;9065;51.050;13.758;2023-02-21T12:29:00;13.40;99.90
17879;DHT22;9065;51.050;13.758;2023-02-21T12:31:41;13.40;99.90
17879;DHT22;9065;51.050;13.758;2023-02-21T12:34:24;13.50;99.90
17879;DHT22;9065;51.050;13.758;2023-02-21T12:37:17;13.60;99.90
17879;DHT22;9065;51.050;13.758;2023-02-21T12:39:59;13.70;99.90
17879;DHT22;9065;51.050;13.758;2023-02-21T12:42:48;13.80;99.90
17879;DHT22;9065;51.050;13.758;2023-02-21T12:45:25;13.80;99.90
17879;DHT22;9065;51.050;13.758;2023-02-21T12:48:04;13.80;99.90
17879;DHT22;9065;51.050;13.758;2023-02-21T12:50:35;13.90;99.90
17879;DHT22;9065;51.050;13.758;2023-02-21T12:53:09;14.00;99.90
17879;DHT22;9065;51.050;13.758;2023-02-21T12:55:44;14.00;99.90
17879;DHT22;9065;51.050;13.758;2023-02-21T12:58:17;14.00;99.90
17879;DHT22;9065;51.050;13.758;2023-02-21T13:00:50;14.10;99.90
17879;DHT22;9065;51.050;13.758;2023-02-21T13:03:38;14.10;99.90
17879;DHT22;9065;51.050;13.758;2023-02-21T13:06:12;14.00;99.90
17879;DHT22;9065;51.050;13.758;2023-02-21T13:08:50;13.90;99.90
17879;DHT22;9065;51.050;13.758;2023-02-21T13:11:23;14.00;99.90
17879;DHT22;9065;51.050;13.758;2023-02-21T13:13:52;14.10;99.90
17879;DHT22;9065;51.050;13.758;2023-02-21T13:16:19;14.00;99.90
17879;DHT22;9065;51.050;13.758;2023-02-21T13:18:49;14.10;99.90
17879;DHT22;9065;51.050;13.758;2023-02-21T13:21:28;14.20;99.90
17879;DHT22;9065;51.050;13.758;2023-02-21T13:24:14;14.20;99.90
17879;DHT22;9065;51.050;13.758;2023-02-21T13:29:48;14.00;99.90
17879;DHT22;9065;51.050;13.758;2023-02-21T13:32:18;14.10;99.90
17879;DHT22;9065;51.050;13.758;2023-02-21T13:34:51;14.00;99.90
17879;DHT22;9065;51.050;13.758;2023-02-21T13:37:26;14.00;99.90
17879;DHT22;9065;51.050;13.758;2023-02-21T13:39:57;14.00;99.90
17879;DHT22;9065;51.050;13.758;2023-02-21T13:42:41;14.00;99.90
17879;DHT22;9065;51.050;13.758;2023-02-21T13:45:15;13.90;99.90
17879;DHT22;9065;51.050;13.758;2023-02-21T13:48:10;13.90;99.90
17879;DHT22;9065;51.050;13.758;2023-02-21T13:50:47;13.80;99.90
17879;DHT22;9065;51.050;13.758;2023-02-21T13:53:17;13.90;99.90
17879;DHT22;9065;51.050;13.758;2023-02-21T13:58:46;13.80;99.90
17879;DHT22;9065;51.050;13.758;2023-02-21T14:03:57;13.70;99.90
17879;DHT22;9065;51.050;13.758;2023-02-21T14:06:31;13.70;99.90
17879;DHT22;9065;51.050;13.758;2023-02-21T14:09:03;13.70;99.90
17879;DHT22;9065;51.050;13.758;2023-02-21T14:11:35;13.70;99.90
17879;DHT22;9065;51.050;13.758;2023-02-21T14:14:17;13.70;99.90
17879;DHT22;9065;51.050;13.758;2023-02-21T14:16:51;13.70;99.90
17879;DHT22;9065;51.050;13.758;2023-02-21T14:19:23;13.70;99.90
17879;DHT22;9065;51.050;13.758;2023-02-21T14:21:58;13.70;99.90
17879;DHT22;9065;51.050;13.758;2023-02-21T14:24:31;13.70;99.90
17879;DHT22;9065;51.050;13.758;2023-02-21T14:27:32;13.70;99.90
17879;DHT22;9065;51.050;13.758;2023-02-21T14:30:32;13.70;99.90
17879;DHT22;9065;51.050;13.758;2023-02-21T14:35:58;13.70;99.90
17879;DHT22;9065;51.050;13.758;2023-02-21T14:38:28;13.70;99.90
17879;DHT22;9065;51.050;13.758;2023-02-21T14:41:21;13.70;99.90
17879;DHT22;9065;51.050;13.758;2023-02-21T14:44:12;13.60;99.90
17879;DHT22;9065;51.050;13.758;2023-02-21T14:47:24;13.70;99.90
17879;DHT22;9065;51.050;13.758;2023-02-21T14:50:07;13.70;99.90
17879;DHT22;9065;51.050;13.758;2023-02-21T14:56:02;13.70;99.90
17879;DHT22;9065;51.050;13.758;2023-02-21T14:59:09;13.70;99.90
17879;DHT22;9065;51.050;13.758;2023-02-21T15:01:54;13.80;99.90
17879;DHT22;9065;51.050;13.758;2023-02-21T15:04:30;13.90;99.90
17879;DHT22;9065;51.050;13.758;2023-02-21T15:07:09;14.00;99.90
17879;DHT22;9065;51.050;13.758;2023-02-21T15:09:40;14.00;99.90
17879;DHT22;9065;51.050;13.758;2023-02-21T15:12:12;14.00;99.90
17879;DHT22;9065;51.050;13.758;2023-02-21T15:14:47;14.00;99.90
17879;DHT22;9065;51.050;13.758;2023-02-21T15:17:18;13.90;99.90
17879;DHT22;9065;51.050;13.758;2023-02-21T15:20:00;13.90;99.90
17879;DHT22;9065;51.050;13.758;2023-02-21T15:22:30;13.80;99.90
17879;DHT22;9065;51.050;13.758;2023-02-21T15:25:07;13.80;99.90
17879;DHT22;9065;51.050;13.758;2023-02-21T15:27:39;13.80;99.90
17879;DHT22;9065;51.050;13.758;2023-02-21T15:30:20;13.80;99.90
17879;DHT22;9065;51.050;13.758;2023-02-21T15:32:58;13.80;99.90
17879;DHT22;9065;51.050;13.758;2023-02-21T15:35:29;13.70;99.90
17879;DHT22;9065;51.050;13.758;2023-02-21T15:37:59;13.60;99.90
17879;DHT22;9065;51.050;13.758;2023-02-21T15:40:28;13.60;99.90
17879;DHT22;9065;51.050;13.758;2023-02-21T15:42:56;13.50;99.90
17879;DHT22;9065;51.050;13.758;2023-02-21T15:45:43;13.50;99.90
17879;DHT22;9065;51.050;13.758;2023-02-21T15:48:10;13.50;99.90
17879;DHT22;9065;51.050;13.758;2023-02-21T15:50:38;13.50;99.90
17879;DHT22;9065;51.050;13.758;2023-02-21T15:53:16;13.50;99.90
17879;DHT22;9065;51.050;13.758;2023-02-21T15:55:44;13.40;99.90
17879;DHT22;9065;51.050;13.758;2023-02-21T15:58:19;13.40;99.90
17879;DHT22;9065;51.050;13.758;2023-02-21T16:01:00;13.40;99.90
17879;DHT22;9065;51.050;13.758;2023-02-21T16:03:41;13.30;99.90
17879;DHT22;9065;51.050;13.758;2023-02-21T16:06:18;13.30;99.90
17879;DHT22;9065;51.050;13.758;2023-02-21T16:09:00;13.30;99.90
17879;DHT22;9065;51.050;13.758;2023-02-21T16:11:44;13.20;99.90
17879;DHT22;9065;51.050;13.758;2023-02-21T16:14:17;13.10;99.90
17879;DHT22;9065;51.050;13.758;2023-02-21T16:16:49;13.20;99.90
17879;DHT22;9065;51.050;13.758;2023-02-21T16:19:20;13.30;99.90
17879;DHT22;9065;51.050;13.758;2023-02-21T16:21:47;13.30;99.90
17879;DHT22;9065;51.050;13.758;2023-02-21T16:24:31;13.20;99.90
17879;DHT22;9065;51.050;13.758;2023-02-21T16:27:09;13.20;99.90
17879;DHT22;9065;51.050;13.758;2023-02-21T16:29:37;13.20;99.90
17879;DHT22;9065;51.050;13.758;2023-02-21T16:32:14;13.30;99.90
17879;DHT22;9065;51.050;13.758;2023-02-21T16:34:42;13.20;99.90
17879;DHT22;9065;51.050;13.758;2023-02-21T16:37:15;13.20;99.90